createdAt,value
2023-03-05T00:01:33.497Z,1.63
2023-03-05T00:04:02.897Z,2.70
2023-03-05T00:06:32.961Z,1.57
2023-03-05T00:09:01.016Z,2.03
2023-03-05T00:11:30.701Z,2.30
2023-03-05T00:14:00.065Z,2.37
2023-03-05T00:16:29.265Z,2.53
2023-03-05T00:18:59.152Z,1.53
2023-03-05T00:21:39.968Z,1.47
2023-03-05T00:24:13.366Z,2.07
2023-03-05T00:26:52.242Z,2.10
2023-03-05T00:29:22.522Z,3.33
2023-03-05T00:31:50.099Z,3.23
2023-03-05T00:34:19.719Z,3.40
2023-03-05T00:37:00.126Z,3.03
2023-03-05T00:39:27.480Z,2.00
2023-03-05T00:41:54.691Z,2.27
2023-03-05T00:44:26.066Z,2.30
2023-03-05T00:46:54.632Z,2.83
2023-03-05T00:49:21.985Z,1.73
2023-03-05T00:52:00.522Z,3.23
2023-03-05T00:54:37.623Z,2.40
2023-03-05T00:57:17.548Z,1.70
2023-03-05T00:59:52.870Z,1.57
2023-03-05T01:02:52.122Z,1.73
2023-03-05T01:05:50.253Z,3.00
2023-03-05T01:08:18.453Z,2.40
2023-03-05T01:10:45.756Z,2.77
2023-03-05T01:13:23.282Z,2.33
2023-03-05T01:16:18.755Z,3.67
2023-03-05T01:18:46.318Z,3.10
2023-03-05T01:21:13.762Z,3.17
2023-03-05T01:23:40.983Z,3.07
2023-03-05T01:26:08.724Z,1.27
2023-03-05T01:28:38.312Z,1.77
2023-03-05T01:31:09.995Z,2.43
2023-03-05T01:33:37.769Z,2.20
2023-03-05T01:36:13.537Z,2.07
2023-03-05T01:38:46.221Z,2.30
2023-03-05T01:41:15.618Z,1.63
2023-03-05T01:43:44.075Z,3.60
2023-03-05T01:46:37.277Z,2.63
2023-03-05T01:49:32.340Z,2.13
2023-03-05T01:52:18.113Z,2.07
2023-03-05T01:55:26.402Z,2.20
2023-03-05T01:58:06.759Z,1.90
2023-03-05T02:00:53.591Z,2.17
2023-03-05T02:03:23.295Z,2.40
2023-03-05T02:05:52.961Z,2.57
2023-03-05T02:08:23.041Z,1.97
2023-03-05T02:10:55.385Z,2.70
2023-03-05T02:13:28.773Z,2.97
2023-03-05T02:16:00.273Z,0.70
2023-03-05T02:18:27.885Z,3.13
2023-03-05T02:20:57.743Z,1.10
2023-03-05T02:23:30.055Z,3.57
2023-03-05T02:25:57.541Z,1.10
2023-03-05T02:28:47.515Z,2.50
2023-03-05T02:31:21.944Z,2.73
2023-03-05T02:33:50.996Z,1.57
2023-03-05T02:36:19.178Z,0.90
2023-03-05T02:38:47.443Z,2.77
2023-03-05T02:41:15.253Z,2.30
2023-03-05T02:43:42.906Z,2.73
2023-03-05T02:46:10.753Z,1.30
2023-03-05T02:48:38.191Z,1.57
2023-03-05T02:51:07.491Z,1.50
2023-03-05T02:53:35.181Z,1.30
2023-03-05T02:56:02.965Z,1.03
2023-03-05T02:58:30.525Z,1.60
2023-03-05T03:00:59.156Z,1.67
2023-03-05T03:03:29.231Z,1.80
2023-03-05T03:05:59.302Z,1.03
2023-03-05T03:08:27.191Z,2.30
2023-03-05T03:10:56.553Z,1.70
2023-03-05T03:13:26.932Z,1.23
2023-03-05T03:16:14.580Z,1.33
2023-03-05T03:18:42.290Z,1.53
2023-03-05T03:21:16.167Z,2.40
2023-03-05T03:23:43.558Z,1.73
2023-03-05T03:26:10.905Z,2.33
2023-03-05T03:28:38.416Z,2.23
2023-03-05T03:31:06.010Z,1.90
2023-03-05T03:33:33.282Z,1.93
2023-03-05T03:36:00.820Z,1.73
2023-03-05T03:38:28.231Z,1.03
2023-03-05T03:40:55.538Z,1.43
2023-03-05T03:43:25.645Z,1.73
2023-03-05T03:45:53.166Z,1.13
2023-03-05T03:48:23.988Z,1.83
2023-03-05T03:50:51.482Z,2.33
2023-03-05T03:53:18.669Z,1.37
2023-03-05T03:55:47.254Z,1.03
2023-03-05T03:58:16.665Z,1.47
2023-03-05T04:00:44.197Z,2.20
2023-03-05T04:03:11.573Z,1.67
2023-03-05T04:05:46.556Z,1.07
2023-03-05T04:08:16.269Z,0.80
2023-03-05T04:10:48.698Z,1.77
2023-03-05T04:13:17.441Z,1.03
2023-03-05T04:15:45.188Z,1.87
2023-03-05T04:18:14.970Z,1.60
2023-03-05T04:20:42.223Z,1.23
2023-03-05T04:23:09.780Z,0.90
2023-03-05T04:25:37.056Z,1.67
2023-03-05T04:28:08.574Z,1.60
2023-03-05T04:30:36.134Z,2.00
2023-03-05T04:33:03.738Z,0.90
2023-03-05T04:35:31.856Z,1.10
2023-03-05T04:37:59.239Z,2.10
2023-03-05T04:40:26.725Z,1.57
2023-03-05T04:42:54.066Z,1.50
2023-03-05T04:45:22.771Z,1.30
2023-03-05T04:47:56.762Z,0.90
2023-03-05T04:50:43.097Z,0.83
2023-03-05T04:53:11.102Z,1.77
2023-03-05T04:55:40.935Z,0.70
2023-03-05T04:58:11.159Z,1.70
2023-03-05T05:00:39.188Z,1.10
2023-03-05T05:03:06.721Z,0.70
2023-03-05T05:05:35.842Z,0.80
2023-03-05T05:08:04.437Z,1.50
2023-03-05T05:10:31.920Z,1.37
2023-03-05T05:13:02.905Z,1.23
2023-03-05T05:15:33.237Z,1.57
2023-03-05T05:18:00.864Z,0.67
2023-03-05T05:20:28.414Z,1.17
2023-03-05T05:22:55.761Z,1.50
2023-03-05T05:25:23.061Z,1.43
2023-03-05T05:27:50.539Z,0.63
2023-03-05T05:30:17.812Z,0.83
2023-03-05T05:32:45.336Z,1.60
2023-03-05T05:35:12.709Z,0.50
2023-03-05T05:37:40.252Z,2.23
2023-03-05T05:40:09.749Z,0.77
2023-03-05T05:42:37.969Z,0.40
2023-03-05T05:45:06.181Z,1.70
2023-03-05T05:47:33.961Z,1.07
2023-03-05T05:50:01.394Z,0.87
2023-03-05T05:52:29.049Z,0.93
2023-03-05T05:54:56.542Z,1.43
2023-03-05T05:57:25.186Z,1.50
2023-03-05T05:59:52.493Z,1.23
2023-03-05T06:02:56.187Z,1.23
2023-03-05T06:05:23.769Z,1.07
2023-03-05T06:07:51.373Z,1.30
2023-03-05T06:10:19.591Z,0.27
2023-03-05T06:12:47.194Z,1.40
2023-03-05T06:15:14.787Z,1.13
2023-03-05T06:17:42.385Z,0.80
2023-03-05T06:20:10.563Z,1.00
2023-03-05T06:22:40.774Z,1.53
2023-03-05T06:25:09.585Z,1.20
2023-03-05T06:27:37.807Z,1.37
2023-03-05T06:30:07.311Z,0.47
2023-03-05T06:32:37.394Z,0.80
2023-03-05T06:35:06.343Z,0.27
2023-03-05T06:37:34.724Z,1.20
2023-03-05T06:40:02.323Z,1.40
2023-03-05T06:42:29.824Z,0.67
2023-03-05T06:44:57.296Z,1.27
2023-03-05T06:47:27.397Z,1.03
2023-03-05T06:50:13.327Z,1.50
2023-03-05T06:52:41.278Z,0.87
2023-03-05T06:55:10.251Z,0.87
2023-03-05T06:57:37.817Z,0.90
2023-03-05T07:00:12.333Z,1.67
2023-03-05T07:02:39.838Z,1.27
2023-03-05T07:05:08.741Z,1.80
2023-03-05T07:07:38.428Z,1.60
2023-03-05T07:10:08.353Z,1.33
2023-03-05T07:12:36.111Z,1.67
2023-03-05T07:15:03.933Z,0.43
2023-03-05T07:17:33.564Z,1.30
2023-03-05T07:20:01.132Z,1.27
2023-03-05T07:22:28.628Z,1.20
2023-03-05T07:25:01.466Z,0.43
2023-03-05T07:27:28.826Z,2.23
2023-03-05T07:29:56.230Z,2.27
2023-03-05T07:32:23.662Z,1.67
2023-03-05T07:34:51.074Z,1.90
2023-03-05T07:37:18.371Z,0.90
2023-03-05T07:39:47.312Z,1.33
2023-03-05T07:42:14.799Z,1.33
2023-03-05T07:44:42.400Z,1.27
2023-03-05T07:47:09.881Z,1.77
2023-03-05T07:49:37.497Z,1.30
2023-03-05T07:52:06.532Z,0.90
2023-03-05T07:54:37.867Z,1.63
2023-03-05T07:57:06.700Z,0.80
2023-03-05T07:59:35.046Z,1.23
2023-03-05T08:02:02.475Z,0.70
2023-03-05T08:04:31.990Z,0.77
2023-03-05T08:07:00.422Z,0.97
2023-03-05T08:09:29.242Z,1.20
2023-03-05T08:11:57.047Z,0.67
2023-03-05T08:14:24.365Z,1.13
2023-03-05T08:16:52.728Z,1.77
2023-03-05T08:19:21.447Z,1.07
2023-03-05T08:21:51.638Z,1.30
2023-03-05T08:24:22.862Z,0.27
2023-03-05T08:26:56.308Z,0.87
2023-03-05T08:29:42.527Z,1.33
2023-03-05T08:32:40.760Z,1.30
2023-03-05T08:35:09.726Z,0.47
2023-03-05T08:37:37.865Z,1.10
2023-03-05T08:40:06.451Z,0.80
2023-03-05T08:42:33.952Z,0.70
2023-03-05T08:45:01.905Z,1.37
2023-03-05T08:47:29.401Z,1.00
2023-03-05T08:49:59.548Z,1.07
2023-03-05T08:52:27.499Z,1.07
2023-03-05T08:54:55.065Z,0.70
2023-03-05T08:57:28.897Z,0.93
2023-03-05T08:59:59.014Z,0.83
2023-03-05T09:02:29.209Z,0.50
2023-03-05T09:05:17.599Z,1.27
2023-03-05T09:07:45.322Z,0.37
2023-03-05T09:10:14.947Z,0.53
2023-03-05T09:12:42.910Z,0.10
2023-03-05T09:15:12.813Z,1.97
2023-03-05T09:17:42.132Z,1.27
2023-03-05T09:20:15.671Z,1.03
2023-03-05T09:22:47.590Z,0.47
2023-03-05T09:25:17.414Z,0.70
2023-03-05T09:27:48.607Z,0.67
2023-03-05T09:30:32.328Z,0.70
2023-03-05T09:32:59.840Z,1.13
2023-03-05T09:35:27.727Z,0.63
2023-03-05T09:37:55.508Z,0.73
2023-03-05T09:40:38.203Z,0.97
2023-03-05T09:43:36.784Z,0.23
2023-03-05T09:46:43.073Z,0.87
2023-03-05T09:49:40.791Z,0.93
2023-03-05T09:52:21.096Z,0.60
2023-03-05T09:54:58.308Z,0.23
2023-03-05T09:57:42.349Z,0.30
2023-03-05T10:00:39.498Z,0.40
2023-03-05T10:03:47.624Z,0.67
2023-03-05T10:06:26.734Z,0.33
2023-03-05T10:09:32.419Z,0.30
2023-03-05T10:12:19.984Z,1.10
2023-03-05T10:14:49.533Z,0.50
2023-03-05T10:17:50.323Z,0.40
2023-03-05T10:20:39.483Z,0.70
2023-03-05T10:23:09.640Z,0.40
2023-03-05T10:26:14.338Z,0.33
2023-03-05T10:29:31.224Z,0.30
2023-03-05T10:32:20.840Z,0.00
2023-03-05T10:35:29.384Z,0.53
2023-03-05T10:38:48.296Z,0.70
2023-03-05T10:41:29.186Z,0.33
2023-03-05T10:44:24.611Z,0.87
2023-03-05T10:46:59.235Z,0.40
2023-03-05T10:49:36.977Z,1.07
2023-03-05T10:52:19.498Z,0.57
2023-03-05T10:54:57.017Z,0.53
2023-03-05T10:57:32.287Z,0.17
2023-03-05T11:00:20.062Z,0.20
2023-03-05T11:03:14.579Z,0.20
2023-03-05T11:06:01.067Z,0.73
2023-03-05T11:08:53.189Z,0.23
2023-03-05T11:11:28.924Z,0.43
2023-03-05T11:14:03.085Z,0.33
2023-03-05T11:16:35.060Z,0.30
2023-03-05T11:19:19.037Z,0.30
2023-03-05T11:22:07.987Z,0.47
2023-03-05T11:24:35.741Z,0.33
2023-03-05T11:27:23.446Z,0.50
2023-03-05T11:29:53.430Z,0.67
2023-03-05T11:32:26.585Z,0.13
2023-03-05T11:34:55.915Z,0.50
2023-03-05T11:37:30.513Z,1.10
2023-03-05T11:40:19.770Z,0.20
2023-03-05T11:43:00.695Z,0.60
2023-03-05T11:45:32.185Z,0.50
2023-03-05T11:48:09.598Z,0.20
2023-03-05T11:50:42.205Z,0.43
2023-03-05T11:53:20.844Z,0.67
2023-03-05T11:56:02.971Z,0.30
2023-03-05T11:58:59.207Z,1.67
2023-03-05T12:01:35.187Z,1.37
2023-03-05T12:04:05.781Z,0.90
2023-03-05T12:07:02.023Z,0.10
2023-03-05T12:09:56.349Z,0.30
2023-03-05T12:13:05.056Z,0.10
2023-03-05T12:15:49.118Z,0.43
2023-03-05T12:18:57.474Z,0.20
2023-03-05T12:21:51.218Z,0.00
2023-03-05T12:24:27.770Z,0.53
2023-03-05T12:27:04.760Z,0.40
2023-03-05T12:29:49.447Z,0.00
2023-03-05T12:32:23.328Z,0.83
2023-03-05T12:34:59.968Z,0.20
2023-03-05T12:37:30.980Z,0.30
2023-03-05T12:40:08.920Z,0.47
2023-03-05T12:42:39.256Z,0.33
2023-03-05T12:45:12.953Z,0.40
2023-03-05T12:48:12.816Z,0.17
2023-03-05T12:51:04.156Z,0.20
2023-03-05T12:53:32.205Z,0.07
2023-03-05T12:56:20.180Z,0.23
2023-03-05T12:58:55.713Z,0.30
2023-03-05T13:01:53.425Z,0.30
2023-03-05T13:04:29.550Z,0.10
2023-03-05T13:07:18.066Z,0.10
2023-03-05T13:09:58.093Z,0.00
2023-03-05T13:12:29.230Z,0.67
2023-03-05T13:15:17.034Z,0.40
2023-03-05T13:18:03.610Z,0.27
2023-03-05T13:20:37.787Z,0.30
2023-03-05T13:23:25.925Z,0.33
2023-03-05T13:26:17.639Z,0.27
2023-03-05T13:29:20.084Z,0.20
2023-03-05T13:32:13.619Z,0.00
2023-03-05T13:34:49.058Z,1.63
2023-03-05T13:37:24.505Z,0.30
2023-03-05T13:40:15.751Z,3.43
2023-03-05T13:42:43.492Z,1.87
2023-03-05T13:45:32.005Z,0.83
2023-03-05T13:48:07.940Z,0.40
2023-03-05T13:50:40.508Z,0.17
2023-03-05T13:53:31.562Z,0.10
2023-03-05T13:56:06.180Z,0.10
2023-03-05T13:58:58.733Z,0.00
2023-03-05T14:01:50.666Z,0.17
2023-03-05T14:04:24.718Z,0.00
2023-03-05T14:07:24.610Z,1.70
2023-03-05T14:09:53.233Z,0.73
2023-03-05T14:12:38.014Z,0.37
2023-03-05T14:15:24.875Z,0.37
2023-03-05T14:18:08.355Z,0.40
2023-03-05T14:20:36.805Z,0.40
2023-03-05T14:23:47.030Z,0.00
2023-03-05T14:26:29.560Z,0.30
2023-03-05T14:29:03.774Z,0.00
2023-03-05T14:31:46.537Z,0.30
2023-03-05T14:34:33.191Z,0.10
2023-03-05T14:37:19.165Z,0.00
2023-03-05T14:40:00.929Z,0.20
2023-03-05T14:42:31.878Z,0.00
2023-03-05T14:45:27.591Z,0.00
2023-03-05T14:48:14.904Z,0.00
2023-03-05T14:50:57.483Z,0.00
2023-03-05T14:53:35.884Z,0.30
2023-03-05T14:59:54.586Z,0.10
2023-03-05T15:02:26.852Z,0.20
2023-03-05T15:04:55.089Z,0.30
2023-03-05T15:07:41.239Z,0.13
2023-03-05T15:10:09.383Z,0.23
2023-03-05T15:12:36.897Z,0.13
2023-03-05T15:15:08.256Z,0.20
2023-03-05T15:17:48.413Z,0.03
2023-03-05T15:20:22.821Z,0.53
2023-03-05T15:22:51.388Z,0.20
2023-03-05T15:25:21.765Z,0.00
2023-03-05T15:27:51.099Z,0.20
2023-03-05T15:30:30.169Z,0.30
2023-03-05T15:33:03.473Z,0.40
2023-03-05T15:35:33.331Z,0.73
2023-03-05T15:38:03.411Z,0.47
2023-03-05T15:40:34.255Z,0.00
2023-03-05T15:43:02.485Z,0.23
2023-03-05T15:45:37.719Z,0.53
2023-03-05T15:48:20.928Z,0.10
2023-03-05T15:50:49.429Z,0.10
2023-03-05T15:53:18.279Z,0.10
2023-03-05T15:55:49.034Z,0.37
2023-03-05T15:58:17.789Z,0.40
2023-03-05T16:00:47.683Z,0.20
2023-03-05T16:03:15.789Z,0.20
2023-03-05T16:05:43.834Z,0.00
2023-03-05T16:08:11.174Z,0.00
2023-03-05T16:10:41.211Z,0.33
2023-03-05T16:13:13.794Z,0.60
2023-03-05T16:15:43.019Z,0.17
2023-03-05T16:18:18.952Z,0.70
2023-03-05T16:20:49.906Z,0.20
2023-03-05T16:23:18.030Z,0.63
2023-03-05T16:25:46.615Z,0.07
2023-03-05T16:28:20.775Z,0.50
2023-03-05T16:31:01.464Z,0.10
2023-03-05T16:33:29.065Z,0.30
2023-03-05T16:36:21.196Z,0.00
2023-03-05T16:49:53.843Z,0.00
2023-03-05T16:52:23.156Z,0.00
2023-03-05T16:55:10.730Z,0.63
2023-03-05T16:57:43.137Z,0.10
2023-03-05T17:00:14.806Z,0.53
2023-03-05T17:02:45.840Z,0.30
2023-03-05T17:05:13.614Z,0.00
2023-03-05T17:07:45.671Z,0.20
2023-03-05T17:17:58.473Z,0.00
2023-03-05T17:20:40.103Z,0.03
2023-03-05T17:23:17.223Z,0.37
2023-03-05T17:28:58.849Z,0.00
2023-03-05T17:31:26.463Z,0.40
2023-03-05T17:33:56.737Z,0.10
2023-03-05T17:36:40.086Z,0.30
2023-03-05T17:39:16.876Z,0.10
2023-03-05T17:42:11.294Z,0.00
2023-03-05T17:44:42.934Z,0.20
2023-03-05T17:47:15.904Z,0.13
2023-03-05T17:49:57.233Z,0.20
2023-03-05T17:52:42.858Z,0.23
2023-03-05T17:58:29.781Z,0.40
2023-03-05T18:04:52.304Z,0.83
2023-03-05T18:07:20.757Z,0.60
2023-03-05T18:09:48.714Z,0.17
2023-03-05T18:12:16.975Z,0.70
2023-03-05T18:14:44.633Z,0.00
2023-03-05T18:17:12.350Z,1.07
2023-03-05T18:19:40.626Z,0.87
2023-03-05T18:22:10.228Z,0.70
2023-03-05T18:24:41.806Z,0.10
2023-03-05T18:27:21.859Z,0.53
2023-03-05T18:30:11.462Z,1.27
2023-03-05T18:33:06.895Z,0.57
2023-03-05T18:35:38.841Z,1.03
2023-03-05T18:38:22.976Z,0.10
2023-03-05T18:40:59.118Z,0.13
2023-03-05T18:43:32.381Z,0.73
2023-03-05T18:46:05.201Z,0.87
2023-03-05T18:48:32.963Z,0.57
2023-03-05T18:51:22.244Z,0.23
2023-03-05T18:54:13.027Z,0.83
2023-03-05T18:57:07.095Z,0.17
2023-03-05T18:59:36.402Z,0.30
2023-03-05T19:02:04.092Z,1.03
2023-03-05T19:04:32.628Z,0.97
2023-03-05T19:07:00.128Z,1.00
2023-03-05T19:09:44.576Z,0.83
2023-03-05T19:12:12.371Z,0.77
2023-03-05T19:14:40.572Z,1.07
2023-03-05T19:17:08.460Z,1.33
2023-03-05T19:19:42.958Z,0.50
2023-03-05T19:22:14.235Z,0.53
2023-03-05T19:24:42.414Z,0.30
2023-03-05T19:27:14.610Z,0.27
2023-03-05T19:29:45.896Z,0.10
2023-03-05T19:32:27.686Z,0.53
2023-03-05T19:35:26.207Z,0.73
2023-03-05T19:38:07.935Z,0.40
2023-03-05T19:43:45.395Z,0.93
2023-03-05T19:46:18.589Z,0.13
2023-03-05T19:49:02.748Z,2.00
2023-03-05T19:51:58.153Z,0.47
2023-03-05T19:54:32.303Z,0.43
2023-03-05T19:57:00.922Z,0.53
2023-03-05T19:59:28.630Z,0.20
2023-03-05T20:01:57.751Z,1.10
2023-03-05T20:04:26.006Z,0.23
2023-03-05T20:06:53.849Z,0.40
2023-03-05T20:09:21.486Z,0.17
2023-03-05T20:11:56.714Z,0.30
2023-03-05T20:14:24.486Z,0.40
2023-03-05T20:16:56.626Z,0.57
2023-03-05T20:19:31.160Z,0.40
2023-03-05T20:22:00.970Z,0.30
2023-03-05T20:24:28.997Z,0.33
2023-03-05T20:26:56.792Z,0.70
2023-03-05T20:29:25.683Z,0.47
2023-03-05T20:31:56.691Z,0.53
2023-03-05T20:34:24.823Z,1.03
2023-03-05T20:36:58.792Z,0.00
2023-03-05T20:39:26.605Z,0.40
2023-03-05T20:42:07.013Z,0.07
2023-03-05T20:44:42.705Z,0.20
2023-03-05T20:47:28.370Z,0.43
2023-03-05T20:49:56.198Z,0.10
2023-03-05T20:52:23.607Z,0.20
2023-03-05T20:54:51.121Z,0.53
2023-03-05T20:57:18.971Z,0.20
2023-03-05T20:59:48.514Z,0.60
2023-03-05T21:02:18.477Z,0.10
2023-03-05T21:04:50.416Z,0.63
2023-03-05T21:07:18.031Z,1.07
2023-03-05T21:09:45.385Z,1.23
2023-03-05T21:12:19.563Z,0.30
2023-03-05T21:14:49.230Z,0.60
2023-03-05T21:17:18.075Z,1.63
2023-03-05T21:19:45.475Z,1.23
2023-03-05T21:22:14.012Z,0.93
2023-03-05T21:25:03.475Z,0.93
2023-03-05T21:27:30.899Z,0.90
2023-03-05T21:29:58.362Z,1.00
2023-03-05T21:32:26.397Z,0.20
2023-03-05T21:34:53.766Z,1.63
2023-03-05T21:37:21.211Z,1.17
2023-03-05T21:41:08.383Z,0.93
2023-03-05T21:43:18.909Z,0.70
2023-03-05T21:45:47.742Z,1.00
2023-03-05T21:48:16.379Z,0.83
2023-03-05T21:50:46.226Z,0.63
2023-03-05T21:53:15.772Z,0.30
2023-03-05T21:55:53.347Z,0.93
2023-03-05T21:58:20.753Z,1.13
2023-03-05T22:00:48.082Z,0.50
2023-03-05T22:03:15.430Z,0.40
2023-03-05T22:05:44.076Z,0.37
2023-03-05T22:08:11.767Z,0.47
2023-03-05T22:10:41.572Z,0.37
2023-03-05T22:13:10.856Z,0.50
2023-03-05T22:16:03.760Z,0.33
2023-03-05T22:18:33.188Z,0.50
2023-03-05T22:21:01.462Z,0.60
2023-03-05T22:23:34.125Z,0.77
2023-03-05T22:26:07.213Z,0.20
2023-03-05T22:28:39.138Z,0.97
2023-03-05T22:31:06.875Z,0.73
2023-03-05T22:33:34.198Z,0.80
2023-03-05T22:36:07.897Z,1.07
2023-03-05T22:38:35.334Z,0.53
2023-03-05T22:41:08.202Z,1.53
2023-03-05T22:43:35.822Z,0.90
2023-03-05T22:46:25.533Z,0.10
2023-03-05T22:48:54.424Z,0.70
2023-03-05T22:51:21.809Z,0.57
2023-03-05T22:53:49.570Z,1.37
2023-03-05T22:56:20.735Z,0.57
2023-03-05T22:58:48.743Z,0.53
2023-03-05T23:01:24.594Z,0.70
2023-03-05T23:03:58.714Z,0.57
2023-03-05T23:06:26.351Z,0.57
2023-03-05T23:08:53.881Z,0.70
2023-03-05T23:11:21.543Z,0.60
2023-03-05T23:13:48.913Z,1.47
2023-03-05T23:16:16.429Z,0.53
2023-03-05T23:18:43.865Z,0.90
2023-03-05T23:21:11.285Z,1.63
2023-03-05T23:23:38.720Z,1.37
2023-03-05T23:26:06.201Z,0.37
2023-03-05T23:28:33.791Z,0.37
2023-03-05T23:31:02.645Z,1.30
2023-03-05T23:33:30.089Z,0.43
2023-03-05T23:36:00.393Z,0.43
2023-03-05T23:38:30.559Z,0.67
2023-03-05T23:41:01.464Z,0.37
2023-03-05T23:43:30.482Z,0.50
2023-03-05T23:45:58.114Z,0.47
2023-03-05T23:48:27.946Z,0.57
2023-03-05T23:50:55.755Z,0.77
2023-03-05T23:53:27.315Z,0.40
2023-03-05T23:55:55.994Z,0.33
2023-03-05T23:58:24.394Z,0.90
